createdAt,value
2019-05-28T00:02:02.736Z,96.68
2019-05-28T00:04:32.248Z,96.68
2019-05-28T00:07:01.657Z,97.22
2019-05-28T00:09:31.036Z,96.91
2019-05-28T00:12:00.681Z,98.22
2019-05-28T00:14:30.265Z,98.58
2019-05-28T00:16:59.746Z,98.63
2019-05-28T00:19:29.160Z,98.51
2019-05-28T00:21:58.584Z,99.09
2019-05-28T00:24:28.049Z,98.25
2019-05-28T00:26:57.508Z,98.25
2019-05-28T00:29:26.894Z,98.31
2019-05-28T00:31:56.328Z,98.78
2019-05-28T00:34:25.832Z,98.82
2019-05-28T00:36:55.363Z,99.54
2019-05-28T00:39:24.804Z,100.00
2019-05-28T00:41:54.254Z,100.00
2019-05-28T00:44:23.618Z,100.00
2019-05-28T00:46:53.117Z,100.00
2019-05-28T00:49:22.736Z,100.00
2019-05-28T00:51:52.370Z,100.00
2019-05-28T00:54:21.847Z,100.00
2019-05-28T00:56:52.461Z,100.00
2019-05-28T00:59:23.812Z,100.00
2019-05-28T01:01:53.233Z,100.00
2019-05-28T01:04:22.668Z,100.00
2019-05-28T01:06:54.319Z,100.00
2019-05-28T01:09:23.790Z,100.00
2019-05-28T01:11:53.244Z,100.00
2019-05-28T01:14:22.622Z,100.00
2019-05-28T01:16:52.092Z,100.00
2019-05-28T01:19:21.584Z,100.00
2019-05-28T01:21:51.006Z,100.00
2019-05-28T01:24:20.477Z,100.00
2019-05-28T01:26:49.961Z,100.00
2019-05-28T01:29:19.314Z,100.00
2019-05-28T01:31:48.745Z,100.00
2019-05-28T01:34:18.620Z,100.00
2019-05-28T01:36:48.030Z,100.00
2019-05-28T01:39:17.402Z,100.00
2019-05-28T01:41:46.905Z,100.00
2019-05-28T01:44:16.449Z,100.00
2019-05-28T01:46:45.873Z,100.00
2019-05-28T01:49:15.353Z,100.00
2019-05-28T01:51:44.775Z,100.00
2019-05-28T01:54:14.251Z,100.00
2019-05-28T01:56:43.707Z,100.00
2019-05-28T01:59:13.187Z,100.00
2019-05-28T02:01:42.604Z,100.00
2019-05-28T02:04:12.019Z,100.00
2019-05-28T02:06:41.465Z,100.00
2019-05-28T02:09:11.046Z,100.00
2019-05-28T02:11:40.561Z,100.00
2019-05-28T02:14:09.936Z,100.00
2019-05-28T02:16:39.416Z,100.00
2019-05-28T02:19:08.924Z,100.00
2019-05-28T02:21:38.343Z,100.00
2019-05-28T02:24:07.733Z,100.00
2019-05-28T02:26:37.215Z,100.00
2019-05-28T02:29:06.683Z,100.00
2019-05-28T02:31:36.106Z,100.00
2019-05-28T02:34:05.628Z,100.00
2019-05-28T02:36:35.054Z,100.00
2019-05-28T02:39:06.820Z,100.00
2019-05-28T02:41:36.296Z,100.00
2019-05-28T02:44:05.945Z,100.00
2019-05-28T02:46:35.359Z,100.00
2019-05-28T02:49:04.770Z,100.00
2019-05-28T02:51:34.805Z,100.00
2019-05-28T02:54:04.574Z,100.00
2019-05-28T02:56:35.351Z,100.00
2019-05-28T02:59:05.324Z,100.00
2019-05-28T03:01:44.267Z,100.00
2019-05-28T03:04:11.131Z,100.00
2019-05-28T03:06:43.470Z,100.00
2019-05-28T03:09:12.862Z,100.00
2019-05-28T03:11:42.322Z,100.00
2019-05-28T03:14:11.793Z,100.00
2019-05-28T03:16:43.853Z,100.00
2019-05-28T03:19:13.498Z,100.00
2019-05-28T03:21:43.122Z,100.00
2019-05-28T03:24:14.913Z,100.00
2019-05-28T03:26:44.384Z,100.00
2019-05-28T03:29:14.301Z,100.00
2019-05-28T03:32:02.865Z,100.00
2019-05-28T03:34:15.207Z,100.00
2019-05-28T03:36:46.257Z,100.00
2019-05-28T03:39:17.115Z,100.00
2019-05-28T03:41:46.942Z,100.00
2019-05-28T03:44:16.611Z,100.00
2019-05-28T03:46:46.032Z,100.00
2019-05-28T03:49:15.457Z,100.00
2019-05-28T03:51:44.874Z,100.00
2019-05-28T03:54:14.350Z,100.00
2019-05-28T03:56:43.832Z,100.00
2019-05-28T03:59:13.271Z,100.00
2019-05-28T04:01:42.711Z,100.00
2019-05-28T04:04:12.136Z,100.00
2019-05-28T04:06:41.571Z,100.00
2019-05-28T04:09:11.052Z,100.00
2019-05-28T04:11:44.738Z,100.00
2019-05-28T04:14:11.636Z,100.00
2019-05-28T04:16:41.071Z,99.54
2019-05-28T04:19:10.597Z,96.12
2019-05-28T04:21:40.013Z,98.08
2019-05-28T04:24:09.384Z,99.37
2019-05-28T04:26:38.841Z,99.17
2019-05-28T04:29:08.317Z,96.92
2019-05-28T04:31:37.739Z,97.64
2019-05-28T04:34:07.165Z,94.50
2019-05-28T04:36:36.593Z,90.77
2019-05-28T04:39:08.343Z,90.11
2019-05-28T04:41:37.799Z,90.52
2019-05-28T04:44:07.399Z,89.08
2019-05-28T04:46:36.820Z,86.90
2019-05-28T04:49:06.235Z,85.69
2019-05-28T04:51:35.707Z,84.98
2019-05-28T04:54:05.171Z,83.25
2019-05-28T04:56:34.849Z,83.83
2019-05-28T04:59:04.268Z,82.53
2019-05-28T05:01:33.745Z,79.96
2019-05-28T05:04:03.378Z,80.40
2019-05-28T05:06:32.775Z,79.57
2019-05-28T05:09:02.147Z,77.29
2019-05-28T05:11:31.703Z,74.76
2019-05-28T05:14:01.256Z,75.61
2019-05-28T05:16:30.677Z,73.93
2019-05-28T05:19:00.210Z,74.28
2019-05-28T05:21:29.702Z,74.12
2019-05-28T05:23:59.105Z,75.20
2019-05-28T05:26:28.635Z,75.68
2019-05-28T05:28:58.191Z,83.19
2019-05-28T05:31:27.696Z,81.47
2019-05-28T05:33:57.101Z,78.47
2019-05-28T05:36:26.603Z,74.01
2019-05-28T05:38:56.118Z,70.17
2019-05-28T05:41:25.556Z,69.19
2019-05-28T05:43:54.920Z,69.99
2019-05-28T05:46:24.422Z,69.26
2019-05-28T05:48:53.937Z,67.86
2019-05-28T05:51:23.450Z,69.70
2019-05-28T05:53:52.799Z,69.36
2019-05-28T05:56:22.277Z,69.82
2019-05-28T05:58:51.705Z,68.17
2019-05-28T06:01:21.192Z,67.15
2019-05-28T06:03:50.698Z,64.93
2019-05-28T06:06:20.165Z,62.72
2019-05-28T06:08:49.574Z,64.27
2019-05-28T06:11:19.087Z,61.75
2019-05-28T06:13:48.608Z,61.33
2019-05-28T06:16:18.112Z,63.85
2019-05-28T06:18:47.536Z,65.29
2019-05-28T06:21:19.047Z,66.29
2019-05-28T06:23:48.251Z,66.80
2019-05-28T06:26:17.768Z,69.26
2019-05-28T06:28:47.129Z,68.36
2019-05-28T06:31:16.660Z,66.87
2019-05-28T06:33:56.324Z,65.27
2019-05-28T06:36:18.996Z,65.88
2019-05-28T06:38:48.554Z,68.84
2019-05-28T06:41:18.089Z,71.63
2019-05-28T06:43:47.685Z,72.03
2019-05-28T06:46:17.080Z,67.16
2019-05-28T06:48:46.743Z,64.68
2019-05-28T06:51:16.196Z,64.72
2019-05-28T06:53:53.462Z,65.53
2019-05-28T06:56:22.907Z,64.83
2019-05-28T06:58:52.487Z,61.72
2019-05-28T07:01:22.035Z,63.64
2019-05-28T07:03:51.417Z,63.08
2019-05-28T07:06:20.899Z,64.94
2019-05-28T07:08:50.439Z,64.80
2019-05-28T07:11:19.922Z,66.55
2019-05-28T07:13:49.309Z,67.52
2019-05-28T07:16:18.767Z,65.70
2019-05-28T07:18:48.166Z,64.27
2019-05-28T07:21:17.625Z,66.93
2019-05-28T07:23:47.210Z,73.04
2019-05-28T07:26:16.641Z,72.96
2019-05-28T07:28:46.006Z,71.15
2019-05-28T07:31:15.591Z,69.55
2019-05-28T07:33:45.149Z,71.96
2019-05-28T07:36:14.658Z,69.40
2019-05-28T07:38:44.080Z,70.25
2019-05-28T07:41:13.507Z,66.88
2019-05-28T07:43:42.969Z,67.43
2019-05-28T07:46:12.423Z,70.31
2019-05-28T07:48:41.804Z,68.33
2019-05-28T07:51:11.248Z,66.90
2019-05-28T07:53:40.896Z,66.09
2019-05-28T07:56:10.389Z,63.67
2019-05-28T07:58:39.908Z,63.10
2019-05-28T08:01:09.454Z,62.37
2019-05-28T08:03:38.874Z,61.78
2019-05-28T08:06:08.356Z,63.66
2019-05-28T08:08:37.922Z,64.23
2019-05-28T08:11:07.492Z,66.58
2019-05-28T08:13:40.552Z,63.80
2019-05-28T08:16:18.053Z,63.99
2019-05-28T08:18:39.372Z,63.02
2019-05-28T08:21:08.839Z,61.67
2019-05-28T08:23:38.244Z,62.09
2019-05-28T08:26:07.749Z,61.95
2019-05-28T08:28:37.250Z,63.51
2019-05-28T08:31:16.250Z,64.91
2019-05-28T08:33:37.882Z,65.22
2019-05-28T08:36:07.406Z,65.74
2019-05-28T08:38:37.057Z,67.01
2019-05-28T08:41:06.611Z,65.94
2019-05-28T08:43:36.269Z,65.20
2019-05-28T08:46:05.906Z,64.33
2019-05-28T08:48:35.447Z,64.61
2019-05-28T08:51:04.966Z,65.48
2019-05-28T08:53:34.372Z,64.21
2019-05-28T08:56:03.797Z,62.21
2019-05-28T08:58:33.410Z,64.22
2019-05-28T09:01:03.043Z,65.28
2019-05-28T09:03:32.569Z,65.00
2019-05-28T09:06:02.001Z,65.68
2019-05-28T09:08:39.203Z,65.40
2019-05-28T09:11:02.783Z,65.03
2019-05-28T09:13:32.158Z,63.57
2019-05-28T09:16:01.638Z,63.04
2019-05-28T09:18:31.163Z,64.12
2019-05-28T09:21:00.685Z,62.27
2019-05-28T09:23:30.185Z,62.24
2019-05-28T09:25:59.692Z,62.05
2019-05-28T09:28:31.149Z,62.89
2019-05-28T09:31:00.281Z,63.41
2019-05-28T09:33:29.830Z,63.18
2019-05-28T09:36:08.310Z,64.24
2019-05-28T09:38:30.553Z,63.95
2019-05-28T09:41:00.181Z,65.70
2019-05-28T09:43:29.739Z,65.96
2019-05-28T09:45:59.237Z,64.61
2019-05-28T09:48:28.743Z,62.75
2019-05-28T09:50:58.226Z,60.76
2019-05-28T09:53:27.737Z,59.89
2019-05-28T09:55:57.150Z,59.60
2019-05-28T09:58:26.950Z,57.56
2019-05-28T10:00:58.968Z,57.24
2019-05-28T10:03:27.670Z,57.10
2019-05-28T10:06:15.031Z,57.20
2019-05-28T10:08:28.421Z,57.17
2019-05-28T10:10:57.940Z,58.31
2019-05-28T10:13:37.833Z,60.22
2019-05-28T10:15:58.643Z,59.19
2019-05-28T10:18:28.151Z,58.30
2019-05-28T10:20:57.587Z,57.66
2019-05-28T10:23:27.191Z,59.59
2019-05-28T10:25:56.649Z,60.53
2019-05-28T10:28:26.150Z,61.51
2019-05-28T10:30:55.592Z,61.85
2019-05-28T10:33:25.103Z,60.75
2019-05-28T10:35:54.544Z,61.38
2019-05-28T10:38:24.118Z,63.02
2019-05-28T10:40:53.563Z,62.27
2019-05-28T10:43:23.032Z,61.89
2019-05-28T10:45:53.003Z,59.63
2019-05-28T10:48:22.716Z,61.59
2019-05-28T10:50:52.310Z,59.21
2019-05-28T10:53:21.824Z,57.86
2019-05-28T10:55:51.418Z,57.16
2019-05-28T10:58:20.789Z,57.93
2019-05-28T11:00:50.279Z,57.55
2019-05-28T11:03:19.774Z,56.83
2019-05-28T11:05:50.038Z,55.40
2019-05-28T11:08:19.516Z,53.82
2019-05-28T11:10:49.075Z,53.93
2019-05-28T11:13:18.566Z,54.67
2019-05-28T11:15:48.135Z,54.14
2019-05-28T11:18:17.592Z,55.21
2019-05-28T11:20:46.997Z,53.63
2019-05-28T11:23:17.302Z,54.61
2019-05-28T11:25:46.857Z,52.91
2019-05-28T11:28:16.687Z,53.06
2019-05-28T11:30:46.121Z,52.86
2019-05-28T11:33:17.427Z,53.36
2019-05-28T11:35:46.776Z,52.29
2019-05-28T11:38:16.357Z,52.10
2019-05-28T11:40:45.750Z,51.00
2019-05-28T11:43:15.127Z,50.54
2019-05-28T11:45:44.740Z,49.48
2019-05-28T11:48:14.304Z,49.56
2019-05-28T11:50:43.727Z,48.74
2019-05-28T11:53:13.158Z,48.88
2019-05-28T11:55:42.669Z,48.42
2019-05-28T11:58:12.026Z,47.46
2019-05-28T12:00:41.625Z,47.29
2019-05-28T12:03:11.100Z,46.76
2019-05-28T12:05:40.495Z,47.06
2019-05-28T12:08:09.897Z,41.36
2019-05-28T12:10:39.381Z,37.98
2019-05-28T12:13:10.934Z,37.93
2019-05-28T12:15:40.014Z,38.10
2019-05-28T12:18:09.391Z,36.45
2019-05-28T12:20:38.951Z,37.73
2019-05-28T12:23:11.761Z,38.14
2019-05-28T12:25:39.570Z,39.00
2019-05-28T12:28:09.066Z,38.80
2019-05-28T12:30:38.697Z,39.10
2019-05-28T12:33:08.159Z,37.66
2019-05-28T12:35:42.462Z,38.11
2019-05-28T12:38:08.762Z,38.27
2019-05-28T12:40:47.930Z,36.55
2019-05-28T12:43:09.249Z,37.75
2019-05-28T12:45:38.753Z,38.58
2019-05-28T12:48:12.495Z,40.61
2019-05-28T12:50:39.344Z,40.03
2019-05-28T12:53:08.773Z,38.02
2019-05-28T12:55:38.238Z,39.32
2019-05-28T12:58:07.722Z,38.71
2019-05-28T13:00:37.447Z,37.00
2019-05-28T13:03:06.835Z,36.33
2019-05-28T13:05:36.398Z,35.96
2019-05-28T13:08:09.836Z,35.82
2019-05-28T13:10:37.218Z,36.82
2019-05-28T13:13:06.616Z,37.42
2019-05-28T13:15:41.495Z,38.42
2019-05-28T13:18:07.230Z,39.35
2019-05-28T13:20:36.697Z,37.55
2019-05-28T13:23:06.208Z,38.27
2019-05-28T13:25:35.614Z,38.03
2019-05-28T13:28:04.985Z,38.35
2019-05-28T13:30:34.489Z,38.87
2019-05-28T13:33:04.037Z,39.32
2019-05-28T13:35:33.422Z,39.13
2019-05-28T13:38:02.865Z,37.82
2019-05-28T13:40:32.398Z,37.17
2019-05-28T13:43:01.881Z,37.71
2019-05-28T13:45:31.289Z,36.90
2019-05-28T13:48:00.673Z,36.74
2019-05-28T13:50:30.138Z,35.78
2019-05-28T13:52:59.641Z,35.67
2019-05-28T13:55:29.020Z,36.37
2019-05-28T13:57:58.424Z,35.29
2019-05-28T14:00:29.660Z,34.97
2019-05-28T14:02:59.208Z,35.46
2019-05-28T14:05:28.602Z,34.16
2019-05-28T14:07:58.001Z,35.24
2019-05-28T14:10:27.599Z,35.56
2019-05-28T14:12:57.148Z,35.85
2019-05-28T14:15:26.541Z,35.82
2019-05-28T14:17:56.129Z,35.91
2019-05-28T14:20:25.703Z,34.89
2019-05-28T14:22:55.201Z,35.92
2019-05-28T14:25:24.651Z,35.74
2019-05-28T14:27:54.052Z,36.26
2019-05-28T14:30:24.189Z,36.53
2019-05-28T14:32:53.649Z,36.98
2019-05-28T14:35:23.107Z,37.71
2019-05-28T14:37:52.612Z,36.04
2019-05-28T14:40:24.832Z,34.52
2019-05-28T14:42:53.175Z,33.46
2019-05-28T14:45:23.273Z,35.00
2019-05-28T14:47:53.055Z,34.97
2019-05-28T14:50:23.535Z,35.31
2019-05-28T14:52:52.943Z,35.15
2019-05-28T14:55:22.492Z,34.72
2019-05-28T14:57:51.979Z,34.38
2019-05-28T15:00:22.790Z,32.65
2019-05-28T15:02:52.200Z,32.68
2019-05-28T15:05:21.769Z,31.92
2019-05-28T15:07:51.363Z,32.04
2019-05-28T15:10:20.992Z,32.49
2019-05-28T15:12:50.505Z,34.19
2019-05-28T15:15:34.506Z,33.35
2019-05-28T15:17:51.362Z,33.26
2019-05-28T15:20:20.931Z,32.88
2019-05-28T15:22:50.447Z,32.18
2019-05-28T15:25:21.280Z,32.16
2019-05-28T15:27:50.680Z,32.19
2019-05-28T15:30:20.630Z,32.69
2019-05-28T15:32:51.266Z,31.58
2019-05-28T15:35:20.831Z,32.04
2019-05-28T15:37:50.241Z,32.24
2019-05-28T15:40:20.751Z,32.93
2019-05-28T15:43:05.067Z,33.00
2019-05-28T15:45:21.403Z,32.36
2019-05-28T15:47:50.784Z,32.29
2019-05-28T15:50:20.394Z,31.99
2019-05-28T15:52:50.128Z,32.22
2019-05-28T15:55:19.500Z,31.80
2019-05-28T15:57:48.971Z,31.30
2019-05-28T16:00:21.494Z,31.25
2019-05-28T16:02:50.912Z,31.50
2019-05-28T16:05:20.473Z,31.29
2019-05-28T16:07:49.976Z,31.39
2019-05-28T16:10:19.943Z,32.01
2019-05-28T16:12:49.304Z,31.98
2019-05-28T16:15:19.136Z,31.75
2019-05-28T16:17:48.612Z,30.85
2019-05-28T16:20:18.034Z,31.19
2019-05-28T16:22:47.441Z,30.73
2019-05-28T16:25:17.300Z,30.89
2019-05-28T16:27:46.797Z,31.18
2019-05-28T16:30:16.448Z,31.55
2019-05-28T16:32:45.830Z,31.09
2019-05-28T16:35:16.877Z,31.48
2019-05-28T16:37:46.297Z,31.77
2019-05-28T16:40:16.653Z,32.13
2019-05-28T16:42:46.285Z,30.94
2019-05-28T16:45:16.418Z,30.44
2019-05-28T16:47:45.793Z,29.83
2019-05-28T16:50:15.575Z,29.09
2019-05-28T16:52:45.187Z,28.90
2019-05-28T16:55:14.757Z,28.80
2019-05-28T16:57:45.594Z,29.12
2019-05-28T17:00:16.101Z,29.45
2019-05-28T17:02:45.559Z,29.77
2019-05-28T17:05:15.375Z,30.58
2019-05-28T17:07:45.130Z,30.67
2019-05-28T17:10:31.773Z,29.79
2019-05-28T17:12:47.942Z,30.07
2019-05-28T17:15:18.038Z,30.27
2019-05-28T17:17:47.707Z,30.25
2019-05-28T17:20:18.278Z,30.39
2019-05-28T17:22:47.722Z,30.16
2019-05-28T17:25:17.387Z,30.11
2019-05-28T17:27:46.934Z,30.81
2019-05-28T17:30:22.383Z,30.49
2019-05-28T17:32:47.566Z,30.87
2019-05-28T17:35:17.300Z,31.21
2019-05-28T17:37:47.139Z,31.48
2019-05-28T17:40:21.834Z,31.59
2019-05-28T17:42:47.751Z,31.89
2019-05-28T17:45:19.034Z,31.96
2019-05-28T17:47:48.502Z,32.04
2019-05-28T17:50:18.522Z,32.82
2019-05-28T17:52:51.363Z,33.13
2019-05-28T17:55:19.483Z,33.58
2019-05-28T17:57:48.868Z,34.12
2019-05-28T18:00:18.498Z,34.22
2019-05-28T18:02:48.752Z,34.16
2019-05-28T18:05:18.574Z,34.62
2019-05-28T18:07:48.155Z,34.55
2019-05-28T18:10:18.244Z,34.63
2019-05-28T18:12:47.741Z,34.66
2019-05-28T18:15:17.775Z,34.98
2019-05-28T18:17:47.184Z,34.78
2019-05-28T18:20:17.140Z,35.08
2019-05-28T18:22:46.671Z,35.43
2019-05-28T18:25:19.407Z,36.06
2019-05-28T18:27:47.558Z,36.17
2019-05-28T18:30:17.582Z,36.38
2019-05-28T18:32:47.083Z,36.75
2019-05-28T18:35:16.481Z,37.03
2019-05-28T18:37:46.045Z,37.47
2019-05-28T18:40:17.175Z,37.37
2019-05-28T18:42:46.556Z,37.57
2019-05-28T18:45:16.268Z,38.08
2019-05-28T18:47:47.219Z,38.23
2019-05-28T18:50:17.586Z,38.39
2019-05-28T18:52:47.264Z,38.66
2019-05-28T18:55:17.210Z,38.96
2019-05-28T18:57:50.796Z,39.55
2019-05-28T19:00:18.542Z,39.52
2019-05-28T19:02:47.947Z,39.39
2019-05-28T19:05:19.074Z,39.38
2019-05-28T19:07:48.692Z,39.58
2019-05-28T19:10:18.179Z,39.68
2019-05-28T19:12:48.251Z,39.63
2019-05-28T19:15:18.170Z,39.67
2019-05-28T19:17:47.654Z,39.63
2019-05-28T19:20:17.134Z,39.30
2019-05-28T19:22:46.536Z,39.34
2019-05-28T19:25:16.451Z,39.19
2019-05-28T19:27:45.931Z,39.22
2019-05-28T19:30:15.466Z,39.12
2019-05-28T19:32:45.253Z,39.39
2019-05-28T19:35:14.822Z,39.30
2019-05-28T19:37:44.918Z,39.54
2019-05-28T19:40:17.237Z,39.22
2019-05-28T19:42:46.614Z,39.72
2019-05-28T19:45:16.617Z,39.66
2019-05-28T19:47:46.124Z,39.66
2019-05-28T19:50:15.623Z,39.62
2019-05-28T19:52:45.061Z,40.04
2019-05-28T19:55:14.551Z,39.63
2019-05-28T19:57:43.944Z,39.32
2019-05-28T20:00:16.161Z,40.95
2019-05-28T20:02:45.653Z,42.53
2019-05-28T20:05:15.549Z,43.12
2019-05-28T20:07:45.051Z,43.70
2019-05-28T20:10:15.325Z,44.28
2019-05-28T20:12:44.830Z,44.89
2019-05-28T20:15:15.248Z,44.93
2019-05-28T20:17:46.247Z,44.70
2019-05-28T20:20:17.131Z,44.79
2019-05-28T20:22:47.756Z,45.45
2019-05-28T20:25:17.574Z,45.46
2019-05-28T20:27:47.539Z,46.15
2019-05-28T20:30:19.194Z,46.44
2019-05-28T20:32:49.198Z,46.79
2019-05-28T20:35:19.081Z,46.96
2019-05-28T20:37:48.735Z,47.50
2019-05-28T20:40:18.211Z,47.52
2019-05-28T20:42:47.597Z,47.60
2019-05-28T20:45:17.222Z,48.31
2019-05-28T20:47:46.705Z,49.12
2019-05-28T20:50:16.796Z,49.88
2019-05-28T20:52:46.228Z,50.21
2019-05-28T20:55:16.619Z,50.46
2019-05-28T20:57:47.066Z,50.88
2019-05-28T21:00:18.252Z,51.16
2019-05-28T21:02:47.647Z,51.87
2019-05-28T21:05:17.329Z,52.16
2019-05-28T21:07:47.870Z,52.81
2019-05-28T21:10:17.434Z,53.83
2019-05-28T21:12:46.813Z,54.41
2019-05-28T21:15:16.980Z,54.92
2019-05-28T21:17:46.355Z,54.96
2019-05-28T21:20:16.241Z,55.10
2019-05-28T21:22:45.774Z,55.70
2019-05-28T21:25:15.165Z,56.08
2019-05-28T21:27:44.572Z,56.43
2019-05-28T21:30:16.635Z,57.07
2019-05-28T21:32:46.156Z,57.35
2019-05-28T21:35:15.735Z,57.12
2019-05-28T21:37:45.145Z,57.77
2019-05-28T21:40:16.642Z,57.85
2019-05-28T21:42:58.530Z,57.89
2019-05-28T21:45:17.624Z,58.48
2019-05-28T21:47:47.018Z,58.81
2019-05-28T21:50:16.748Z,59.30
2019-05-28T21:52:46.283Z,59.46
2019-05-28T21:55:15.990Z,59.94
2019-05-28T21:57:45.564Z,59.98
2019-05-28T22:00:27.417Z,60.20
2019-05-28T22:02:56.896Z,60.06
2019-05-28T22:05:26.396Z,60.50
2019-05-28T22:07:56.005Z,60.91
2019-05-28T22:10:25.494Z,62.04
2019-05-28T22:12:55.633Z,62.62
2019-05-28T22:15:25.451Z,62.77
2019-05-28T22:17:55.955Z,63.86
2019-05-28T22:20:25.403Z,64.06
2019-05-28T22:22:54.834Z,64.05
2019-05-28T22:25:24.418Z,64.23
2019-05-28T22:27:53.894Z,63.99
2019-05-28T22:30:24.128Z,64.73
2019-05-28T22:32:53.880Z,65.29
2019-05-28T22:35:23.354Z,65.46
2019-05-28T22:37:52.856Z,65.74
2019-05-28T22:40:22.533Z,66.37
2019-05-28T22:42:52.013Z,66.10
2019-05-28T22:45:21.444Z,66.48
2019-05-28T22:47:51.251Z,67.04
2019-05-28T22:50:23.222Z,67.25
2019-05-28T22:52:52.317Z,66.99
2019-05-28T22:55:21.699Z,66.93
2019-05-28T22:57:51.093Z,66.83
2019-05-28T23:00:20.993Z,67.11
2019-05-28T23:02:50.472Z,67.72
2019-05-28T23:05:19.854Z,68.10
2019-05-28T23:07:49.275Z,68.48
2019-05-28T23:10:18.955Z,68.81
2019-05-28T23:12:48.430Z,68.44
2019-05-28T23:15:17.906Z,68.20
2019-05-28T23:17:47.384Z,68.24
2019-05-28T23:20:16.985Z,68.48
2019-05-28T23:22:46.414Z,68.97
2019-05-28T23:25:16.107Z,68.46
2019-05-28T23:27:45.594Z,68.64
2019-05-28T23:30:25.330Z,69.15
2019-05-28T23:32:46.754Z,69.09
2019-05-28T23:35:16.512Z,69.29
2019-05-28T23:37:46.017Z,69.32
2019-05-28T23:40:16.439Z,69.22
2019-05-28T23:42:45.802Z,69.16
2019-05-28T23:45:17.152Z,69.19
2019-05-28T23:47:46.610Z,69.33
2019-05-28T23:50:18.200Z,69.34
2019-05-28T23:52:47.723Z,70.00
2019-05-28T23:55:18.098Z,70.60
2019-05-28T23:57:47.554Z,70.67
